Flight Track Log - Related Links

Times and Time Zones

All times are in EDT time to prevent confusion due to time zone crossing. See the DAL2028 flight status page for this flight to view local times or setup timezone preferences in your user account.


Time Position Orientation Groundspeed Altitude Reporting Facility
EDT Latitude Longitude Course Direction KTS MPH feet Rate Location/Type
Sat 04:01:23 PM 28.4167 -81.3000 350° North 184 212 500  Level Orlando TRACON
Sat 04:02:17 PM 28.3667 -81.2667 150° Southeast 200 230 3,000 2,682 Climbing Orlando TRACON
Sat 04:03:35 PM 28.3333 -81.1833 114° Southeast 274 315 6,400 2,905 Climbing Orlando TRACON
Sat 04:04:00 PM 28.7703 -81.3457 353° North  Level FlightAware Approximate
Sat 04:04:23 PM 28.3333 -81.1000 90° East 286 329 9,100  Level Orlando TRACON
Sat 04:05:00 PM 28.8888 -81.3611 350° North  Level FlightAware Approximate
Sat 04:05:58 PM 28.3756 -80.9675 70° East 376 433 12,500  Level Jacksonville Center
Sat 04:06:00 PM 29.0078 -81.3682 350° North  Level FlightAware Approximate
Sat 04:06:24 PM 28.4167 -80.9500 21° North 376 433 13,900  Level Orlando TRACON
Sat 04:07:18 PM 28.5167 -80.9833 344° North 387 445 15,800 1,105 Climbing Orlando TRACON
Sat 04:08:18 PM 28.6167 -80.9833 360° North 401 461 16,000 113 Climbing Orlando TRACON
Sat 04:09:58 PM 28.7922 -81.0614 339° North 420 483 16,100 863 Climbing Jacksonville Center
Sat 04:10:58 PM 28.8931 -81.1117 336° Northwest 404 465 18,300 2,350 Climbing Jacksonville Center
Sat 04:11:58 PM 29.0042 -81.1500 343° North 399 459 20,800 2,250 Climbing Jacksonville Center
Sat 04:12:58 PM 29.1194 -81.1836 346° North 420 483 22,800 1,050 Climbing Jacksonville Center
Sat 04:13:58 PM 29.2306 -81.2317 339° North 426 490 22,900 500 Climbing Jacksonville Center
Sat 04:14:58 PM 29.3358 -81.3014 330° Northwest 431 496 23,800 1,050 Climbing Jacksonville Center
Sat 04:15:58 PM 29.4475 -81.3733 331° Northwest 453 521 25,000 600 Climbing Jacksonville Center
Sat 04:16:58 PM 29.5525 -81.4314 334° Northwest 459 528 25,000 50 Level Jacksonville Center
Sat 04:17:58 PM 29.6800 -81.4536 351° North 447 514 25,100 700 Climbing Jacksonville Center
Sat 04:18:58 PM 29.8078 -81.4828 349° North 452 520 26,400 1,300 Climbing Jacksonville Center
Sat 04:19:58 PM 29.9397 -81.5094 350° North 465 535 27,700 1,200 Climbing Jacksonville Center
Sat 04:20:58 PM 30.0756 -81.5389 349° North 483 556 28,800 650 Climbing Jacksonville Center
Sat 04:21:58 PM 30.2158 -81.5681 350° North 495 570 29,000 100 Climbing Jacksonville Center
Sat 04:22:58 PM 30.3586 -81.6383 337° Northwest 501 577 29,000 650 Level Jacksonville Center
Sat 04:23:58 PM 30.4906 -81.7017 338° Northwest 506 582 30,300 1,550 Climbing Jacksonville Center
Sat 04:24:58 PM 30.6308 -81.7314 350° North 506 582 32,100 1,750 Climbing Jacksonville Center
Sat 04:25:58 PM 30.7689 -81.7539 352° North 506 582 33,800 1,450 Climbing Jacksonville Center
Sat 04:26:58 PM 30.9108 -81.7714 354° North 506 582 35,000 600 Climbing Jacksonville Center
Sat 04:27:58 PM 31.0469 -81.7917 353° North 500 575 35,000  Level Jacksonville Center
Sat 04:28:58 PM 31.1847 -81.8094 354° North 495 570 35,000  Level Jacksonville Center
Sat 04:29:58 PM 31.3228 -81.8297 353° North 500 575 35,000 200 Level Jacksonville Center
Sat 04:30:58 PM 31.4606 -81.8428 355° North 500 575 35,400 1,000 Climbing Jacksonville Center
Sat 04:31:58 PM 31.5819 -81.8608 353° North 500 575 37,000 800 Climbing Jacksonville Center
Sat 04:32:58 PM 31.7261 -81.8814 353° North 481 554 37,000  Level Jacksonville Center
Sat 04:33:58 PM 31.8453 -81.8972 354° North 481 554 37,000  Level Jacksonville Center
Sat 04:34:58 PM 31.9917 -81.9175 353° North 479 551 37,000  Level Jacksonville Center
Sat 04:36:44 PM 32.2194 -81.9497 353° North 491 565 37,000  Level Atlanta Center
Sat 04:37:44 PM 32.3658 -81.9708 353° North 483 556 37,000  Level Atlanta Center
Sat 04:38:44 PM 32.5017 -81.9872 354° North 483 556 37,000  Level Atlanta Center
Sat 04:39:44 PM 32.6378 -82.0089 352° North 483 556 37,000  Level Atlanta Center
Sat 04:40:44 PM 32.7781 -82.0278 354° North 488 562 37,000  Level Atlanta Center
Sat 04:41:44 PM 32.9181 -82.0467 354° North 495 570 37,000  Level Atlanta Center
Sat 04:42:44 PM 33.0561 -82.0683 353° North 502 578 37,000  Level Atlanta Center
Sat 04:43:44 PM 33.1942 -82.0878 353° North 502 578 37,000  Level Atlanta Center
Sat 04:44:44 PM 33.3344 -82.1069 353° North 502 578 37,000  Level Atlanta Center
Sat 04:45:44 PM 33.4706 -82.1264 353° North 502 578 37,000  Level Atlanta Center
Sat 04:46:44 PM 33.5939 -82.1411 354° North 502 578 37,000  Level Atlanta Center
Sat 04:47:44 PM 33.7339 -82.1503 357° North 502 578 37,000  Level Atlanta Center
Sat 04:48:44 PM 33.8733 -82.1322 North 497 572 37,000  Level Atlanta Center
Sat 04:49:44 PM 34.0128 -82.1067 North 497 572 37,000  Level Atlanta Center
Sat 04:50:44 PM 34.1544 -82.0833 North 502 578 37,000  Level Atlanta Center
Sat 04:51:44 PM 34.2939 -82.0575 North 502 578 37,000  Level Atlanta Center
Sat 04:52:44 PM 34.4311 -82.0317 North 502 578 37,000  Level Atlanta Center
Sat 04:53:44 PM 34.5872 -82.0053 North 502 578 37,000  Level Atlanta Center
Sat 04:54:44 PM 34.7286 -81.9814 North 507 583 37,000  Level Atlanta Center
Sat 04:55:44 PM 34.8661 -81.9578 North 502 578 37,000  Level Atlanta Center
Sat 04:56:44 PM 34.9950 -81.9369 North 502 578 37,000  Level Atlanta Center
Sat 04:57:44 PM 35.1347 -81.9333 North 502 578 37,000  Level Atlanta Center
Sat 04:58:44 PM 35.2747 -81.9375 359° North 497 572 37,000  Level Atlanta Center
Sat 04:59:44 PM 35.4125 -81.9414 359° North 497 572 37,000  Level Atlanta Center
Sat 05:00:44 PM 35.5669 -81.9453 359° North 497 572 37,000  Level Atlanta Center
Sat 05:01:44 PM 35.7047 -81.9494 359° North 497 572 37,000  Level Atlanta Center
Sat 05:02:44 PM 35.8422 -81.9508 360° North 492 566 37,000  Level Atlanta Center
Sat 05:03:44 PM 35.9800 -81.9578 358° North 492 566 37,000  Level Atlanta Center
Sat 05:04:44 PM 36.1178 -81.9567 360° North 498 573 37,000  Level Atlanta Center
Sat 05:07:00 PM 36.4144 -81.9633 359° North 500 575 37,000  Level Indianapolis Center
Sat 05:08:02 PM 36.5539 -81.9667 359° North 502 578 37,000  Level Indianapolis Center
Sat 05:09:03 PM 36.7122 -81.9714 359° North 491 565 37,000  Level Indianapolis Center
Sat 05:10:05 PM 36.8489 -81.9742 359° North 493 567 37,000  Level Indianapolis Center
Sat 05:11:06 PM 36.9850 -81.9778 359° North 492 566 37,000  Level Indianapolis Center
Sat 05:12:08 PM 37.1197 -81.9811 359° North 487 560 37,000  Level Indianapolis Center
Sat 05:13:09 PM 37.2522 -81.9844 359° North 480 552 37,000  Level Indianapolis Center
Sat 05:14:11 PM 37.3867 -81.9883 359° North 482 555 37,000  Level Indianapolis Center
Sat 05:15:12 PM 37.5431 -81.9919 359° North 480 552 37,000  Level Indianapolis Center
Sat 05:16:14 PM 37.6756 -81.9975 358° North 478 550 37,000  Level Indianapolis Center
Sat 05:17:16 PM 37.8075 -82.0006 359° North 472 543 37,000  Level Indianapolis Center
Sat 05:18:17 PM 37.9456 -82.0047 359° North 478 550 37,000  Level Indianapolis Center
Sat 05:19:19 PM 38.0792 -82.0081 359° North 478 550 37,000  Level Indianapolis Center
Sat 05:20:20 PM 38.2119 -82.0119 359° North 475 547 37,000  Level Indianapolis Center
Sat 05:21:22 PM 38.3475 -82.0133 360° North 480 552 37,000  Level Indianapolis Center
Sat 05:22:23 PM 38.4797 -82.0181 358° North 472 543 37,000  Level Indianapolis Center
Sat 05:23:25 PM 38.6097 -82.0231 358° North 463 533 37,000  Level Indianapolis Center
Sat 05:24:27 PM 38.7425 -82.0281 358° North 470 541 37,000  Level Indianapolis Center
Sat 05:25:28 PM 38.8733 -82.0456 354° North 469 540 37,000  Level Indianapolis Center
Sat 05:26:30 PM 39.0028 -82.0672 353° North 466 536 37,000  Level Indianapolis Center
Sat 05:27:31 PM 39.1325 -82.0886 353° North 466 536 37,000  Level Indianapolis Center
Sat 05:28:33 PM 39.2892 -82.1119 353° North 469 540 37,000 -341 Level Indianapolis Center
Sat 05:29:34 PM 39.4169 -82.1308 353° North 462 532 36,300 -585 Descending Indianapolis Center
Sat 05:30:36 PM 39.5342 -82.1503 353° North 451 519 35,800 -823 Descending Indianapolis Center
Sat 05:31:38 PM 39.6544 -82.1692 353° North 435 501 34,600 -1,122 Descending Indianapolis Center
Sat 05:32:39 PM 39.7789 -82.1894 353° North 445 512 33,500 -1,073 Descending Indianapolis Center
Sat 05:33:41 PM 39.9025 -82.2094 353° North 445 512 32,400 -976 Descending Indianapolis Center
Sat 05:34:42 PM 40.0453 -82.2322 353° North 441 507 31,500 -1,122 Descending Indianapolis Center
Sat 05:35:44 PM 40.1669 -82.2519 353° North 438 504 30,100 -732 Descending Indianapolis Center
Sat 05:36:45 PM 40.2828 -82.2711 353° North 445 512 30,000 -49 Descending Indianapolis Center
Sat 05:37:47 PM 40.4094 -82.2925 353° North 452 520 30,000  Level Indianapolis Center
Sat 05:38:49 PM 40.5347 -82.3158 352° North 448 516 30,000  Level Indianapolis Center
Sat 05:39:50 PM 40.6575 -82.3508 348° North 445 512 30,000 -146 Level Indianapolis Center
Sat 05:40:52 PM 40.8003 -82.3936 347° North 445 512 29,700 -871 Descending Indianapolis Center
Sat 05:41:54 PM 40.9178 -82.4278 348° North 430 495 28,200 -1,951 Descending Indianapolis Center
Sat 05:42:55 PM 41.0306 -82.4628 347° North 414 476 25,700 -2,049 Descending Indianapolis Center
Sat 05:43:57 PM 41.1442 -82.4953 348° North 412 474 24,000 -823 Descending Indianapolis Center
Sat 05:44:59 PM 41.2525 -82.5342 345° North 401 461 24,000 -829 Level Indianapolis Center
Sat 05:46:00 PM 41.3358 -82.6203 322° Northwest 376 433 22,300 -1,756 Descending Indianapolis Center
Sat 05:47:02 PM 41.4100 -82.7081 318° Northwest 357 411 20,400 -1,887 Descending Indianapolis Center
Sat 05:48:04 PM 41.4792 -82.7881 319° Northwest 332 382 18,400 -1,950 Descending Indianapolis Center
Sat 05:49:02 PM 41.5533 -82.8750 319° Northwest 324 373 16,500 -1,790 Descending Cleveland Center
Sat 05:50:08 PM 41.6164 -82.9525 317° Northwest 326 375 14,700 -1,762 Descending Cleveland Center
Sat 05:51:08 PM 41.6817 -83.0297 319° Northwest 321 369 12,800 -1,350 Descending Cleveland Center
Sat 05:52:08 PM 41.7531 -83.0939 326° Northwest 321 369 12,000 -400 Descending Cleveland Center
Sat 05:53:08 PM 41.8331 -83.1556 330° Northwest 321 369 12,000  Level Cleveland Center
Sat 05:54:08 PM 41.9069 -83.2114 331° Northwest 315 362 12,000  Level Cleveland Center
Sat 05:55:08 PM 41.9786 -83.2675 330° Northwest 290 334 12,000 -200 Level Cleveland Center
Sat 05:56:08 PM 42.0450 -83.2842 349° North 253 291 11,600 -500 Descending Cleveland Center
Sat 05:57:08 PM 42.1136 -83.2817 North 239 275 11,000 -650 Descending Cleveland Center
Sat 05:58:08 PM 42.1772 -83.2394 26° Northeast 239 275 10,300 -1,062 Descending Cleveland Center
Sat 05:59:18 PM 42.2492 -83.1919 26° Northeast 227 261 8,700 -1,328 Descending Cleveland Center
Sat 06:00:19 PM 42.3044 -83.1492 30° Northeast 219 252 7,400 -1,033 Descending Cleveland Center
Sat 06:01:20 PM 42.3553 -83.1064 32° Northeast 214 246 6,600 -983 Descending Cleveland Center
Sat 06:02:15 PM 42.3922 -83.1361 329° Northwest 188 216 5,500 -1,345 Descending Cleveland Center
Sat 06:03:16 PM 42.3594 -83.1992 235° Southwest 205 236 4,000 -1,172 Descending Cleveland Center
Sat 06:04:23 PM 42.3228 -83.2622 232° Southwest 182 209 3,000 -896 Descending Cleveland Center

Login

Don't have an account? Register now (free) for customized features, flight alerts, and more!